Jelm, WY (82063)

12:32 PM MDT on August 20, 2014 (GMT -0600)
Critter Crossing | Change Station
CLOSE
Current Station
Personal Weather Station
Location: Keystone, WY
Elevation: 8700 ft
Nearby Weather Stations

Elev 8700 ft 41.13 °N, 106.25 °W | Updated 2 minutes ago

Scattered Clouds
Scattered Clouds
58.8 °F
Feels Like 58.8 °F
N
2.0
Wind Variable Wind from WSW
Gusts 5.0 mph

Today
High -- | Low -- °F
--% Chance of Precip.
Yesterday
High -- | Low -- °F
Precip. -- in
6:18 AM 7:55 PM
Waning Crescent, 20% visible
Pressure 30.18 in
Visibility 10.0 miles
Clouds Scattered Clouds 3900 ft
Scattered Clouds 4800 ft
Scattered Clouds 5500 ft
Dew Point 48 °F
Humidity 67%
Rainfall 0.00 in
Snow Depth 0 in , 1 in
UV 9 out of 12
Pollen 10.00 out of 12
Air Quality Not available.
Flu Activity Not available.
METAR K33V 201815Z AUTO 23013KT 10SM SCT039 SCT048 SCT055 17/07 A3018 RMK AO2

More Conditions Fewer Conditions

Pressure 30.18 in
Visibility 10.0 miles
Clouds Scattered Clouds 3900 ft
Scattered Clouds 4800 ft
Scattered Clouds 5500 ft
Dew Point 48 °F
Humidity 67%
Rainfall 0.00 in
Snow Depth 0 in , 1 in
UV 9 out of 12
Pollen 10.00 out of 12
Air Quality Not available.
Flu Activity Not available.
METAR K33V 201815Z AUTO 23013KT 10SM SCT039 SCT048 SCT055 17/07 A3018 RMK AO2

More Conditions Fewer Conditions

10-Day Weather Forecast

Almanac

Astronomy

Aug. 20, 2014 Rise Set
Actual Time 6:18 AM MDT 7:55 PM MDT
Civil Twilight 5:49 AM MDT 8:24 PM MDT
Nautical Twilight 5:14 AM MDT 8:59 PM MDT
Astronomical Twilight 4:36 AM MDT 9:36 PM MDT
Moon 2:00 AM MDT 4:43 PM MDT
Length of Visible Light 14h 34m
Length of Day
13h 36m
Tomorrow will be 2m 30s shorter.
Waning Crescent, 20% of the Moon is Illuminated
Today
Waning Crescent
Aug 25
New
Sep 2
First Quarter
Sep 8
Full
Sep 15
Last Quarter

Today's Extremes

State Highs State Lows

Community

WunderPhotos

Upload Photos

1,745,707 photos uploaded!

WunderBlogs® & News

By Dr. Jeff Masters
Director of Meteorology, Weather Underground
By Kari Strenfel
Meteorologist, Weather Underground
By Christopher C. Burt
Weather Historian, Weather Underground
August 20, 2014
August 20, 2014
August 20, 2014

Nearby

Snow Depth

Station Depth Elevation
Whiskey Park 0 in 8950 ft
Cinnabar Park 1 in 9690 ft
South Brush Creek 0 in 8440 ft
Sand Lake 0 in 10050 ft
Webber Springs 0 in 9250 ft

Earthquake Activity

City Distance Mag. Time & Date
No recent earthquake activity has been reported nearby.
Minimum magnitude displayed is 2.5.

Coastal Water Temperatures

Place Temperature
No Stations Reporting

Nearby Weather Stations